sensor_id;sensor_type;location;lat;lon;timestamp;temperature;humidity
44863;DHT22;30597;49.628;10.850;2023-02-16T00:01:22;17.90;45.90
44863;DHT22;30597;49.628;10.850;2023-02-16T00:03:48;17.80;45.80
44863;DHT22;30597;49.628;10.850;2023-02-16T00:06:14;17.80;45.90
44863;DHT22;30597;49.628;10.850;2023-02-16T00:08:48;17.70;45.90
44863;DHT22;30597;49.628;10.850;2023-02-16T00:14:13;17.70;45.90
44863;DHT22;30597;49.628;10.850;2023-02-16T00:16:39;17.70;45.90
44863;DHT22;30597;49.628;10.850;2023-02-16T00:19:15;17.70;45.90
44863;DHT22;30597;49.628;10.850;2023-02-16T00:21:41;17.70;45.90
44863;DHT22;30597;49.628;10.850;2023-02-16T00:24:06;17.70;45.90
44863;DHT22;30597;49.628;10.850;2023-02-16T00:26:33;17.70;45.80
44863;DHT22;30597;49.628;10.850;2023-02-16T00:28:59;17.70;45.80
44863;DHT22;30597;49.628;10.850;2023-02-16T00:31:26;17.70;45.70
44863;DHT22;30597;49.628;10.850;2023-02-16T00:33:53;17.70;45.70
44863;DHT22;30597;49.628;10.850;2023-02-16T00:36:19;17.70;45.70
44863;DHT22;30597;49.628;10.850;2023-02-16T00:38:45;17.70;45.80
44863;DHT22;30597;49.628;10.850;2023-02-16T00:41:21;17.70;45.70
44863;DHT22;30597;49.628;10.850;2023-02-16T00:44:15;17.70;45.70
44863;DHT22;30597;49.628;10.850;2023-02-16T00:46:41;17.70;45.80
44863;DHT22;30597;49.628;10.850;2023-02-16T00:49:16;17.70;45.80
44863;DHT22;30597;49.628;10.850;2023-02-16T00:51:42;17.70;45.90
44863;DHT22;30597;49.628;10.850;2023-02-16T00:54:08;17.60;45.70
44863;DHT22;30597;49.628;10.850;2023-02-16T00:56:34;17.60;45.80
44863;DHT22;30597;49.628;10.850;2023-02-16T00:59:00;17.60;45.80
44863;DHT22;30597;49.628;10.850;2023-02-16T01:01:29;17.60;45.90
44863;DHT22;30597;49.628;10.850;2023-02-16T01:03:59;17.60;45.90
44863;DHT22;30597;49.628;10.850;2023-02-16T01:06:25;17.60;46.00
44863;DHT22;30597;49.628;10.850;2023-02-16T01:09:15;17.50;45.90
44863;DHT22;30597;49.628;10.850;2023-02-16T01:12:01;17.50;46.00
44863;DHT22;30597;49.628;10.850;2023-02-16T01:14:30;17.50;46.10
44863;DHT22;30597;49.628;10.850;2023-02-16T01:16:57;17.50;46.10
44863;DHT22;30597;49.628;10.850;2023-02-16T01:19:23;17.40;46.00
44863;DHT22;30597;49.628;10.850;2023-02-16T01:21:48;17.40;46.00
44863;DHT22;30597;49.628;10.850;2023-02-16T01:24:14;17.50;46.20
44863;DHT22;30597;49.628;10.850;2023-02-16T01:26:43;17.40;45.90
44863;DHT22;30597;49.628;10.850;2023-02-16T01:29:15;17.50;46.00
44863;DHT22;30597;49.628;10.850;2023-02-16T01:31:41;17.40;45.90
44863;DHT22;30597;49.628;10.850;2023-02-16T01:34:07;17.40;46.00
44863;DHT22;30597;49.628;10.850;2023-02-16T01:36:38;17.40;45.90
44863;DHT22;30597;49.628;10.850;2023-02-16T01:39:05;17.40;45.90
44863;DHT22;30597;49.628;10.850;2023-02-16T01:41:50;17.40;46.00
44863;DHT22;30597;49.628;10.850;2023-02-16T01:44:28;17.30;46.00
44863;DHT22;30597;49.628;10.850;2023-02-16T01:47:25;17.40;46.00
44863;DHT22;30597;49.628;10.850;2023-02-16T01:49:53;17.40;46.00
44863;DHT22;30597;49.628;10.850;2023-02-16T01:52:31;17.30;45.90
44863;DHT22;30597;49.628;10.850;2023-02-16T01:55:12;17.30;46.00
44863;DHT22;30597;49.628;10.850;2023-02-16T01:57:48;17.30;45.90
44863;DHT22;30597;49.628;10.850;2023-02-16T02:00:20;17.40;46.00
44863;DHT22;30597;49.628;10.850;2023-02-16T02:02:57;17.40;46.00
44863;DHT22;30597;49.628;10.850;2023-02-16T02:05:44;17.30;45.90
44863;DHT22;30597;49.628;10.850;2023-02-16T02:08:18;17.30;46.00
44863;DHT22;30597;49.628;10.850;2023-02-16T02:11:17;17.30;46.00
44863;DHT22;30597;49.628;10.850;2023-02-16T02:13:49;17.20;45.90
44863;DHT22;30597;49.628;10.850;2023-02-16T02:16:18;17.20;46.00
44863;DHT22;30597;49.628;10.850;2023-02-16T02:18:44;17.20;46.00
44863;DHT22;30597;49.628;10.850;2023-02-16T02:21:38;17.20;46.00
44863;DHT22;30597;49.628;10.850;2023-02-16T02:27:45;17.10;46.10
44863;DHT22;30597;49.628;10.850;2023-02-16T02:30:22;17.10;46.20
44863;DHT22;30597;49.628;10.850;2023-02-16T02:35:48;17.10;46.10
44863;DHT22;30597;49.628;10.850;2023-02-16T02:38:26;17.10;46.10
44863;DHT22;30597;49.628;10.850;2023-02-16T02:41:23;17.10;46.20
44863;DHT22;30597;49.628;10.850;2023-02-16T02:44:10;17.00;46.10
44863;DHT22;30597;49.628;10.850;2023-02-16T02:46:37;17.00;46.10
44863;DHT22;30597;49.628;10.850;2023-02-16T02:49:03;17.00;46.80
44863;DHT22;30597;49.628;10.850;2023-02-16T02:51:29;17.00;46.10
44863;DHT22;30597;49.628;10.850;2023-02-16T02:56:48;17.00;46.10
44863;DHT22;30597;49.628;10.850;2023-02-16T02:59:37;16.90;46.00
44863;DHT22;30597;49.628;10.850;2023-02-16T03:02:23;17.00;46.10
44863;DHT22;30597;49.628;10.850;2023-02-16T03:04:52;16.90;46.00
44863;DHT22;30597;49.628;10.850;2023-02-16T03:07:20;16.90;46.10
44863;DHT22;30597;49.628;10.850;2023-02-16T03:09:47;16.90;46.00
44863;DHT22;30597;49.628;10.850;2023-02-16T03:12:33;16.90;46.10
44863;DHT22;30597;49.628;10.850;2023-02-16T03:15:12;16.90;46.10
44863;DHT22;30597;49.628;10.850;2023-02-16T03:17:39;16.90;46.10
44863;DHT22;30597;49.628;10.850;2023-02-16T03:20:25;16.90;46.10
44863;DHT22;30597;49.628;10.850;2023-02-16T03:23:09;16.80;46.00
44863;DHT22;30597;49.628;10.850;2023-02-16T03:25:54;16.80;46.10
44863;DHT22;30597;49.628;10.850;2023-02-16T03:28:40;16.80;46.70
44863;DHT22;30597;49.628;10.850;2023-02-16T03:31:32;16.80;46.10
44863;DHT22;30597;49.628;10.850;2023-02-16T03:33:58;16.80;46.10
44863;DHT22;30597;49.628;10.850;2023-02-16T03:36:27;16.80;46.10
44863;DHT22;30597;49.628;10.850;2023-02-16T03:38:55;16.70;46.00
44863;DHT22;30597;49.628;10.850;2023-02-16T03:41:21;16.70;46.10
44863;DHT22;30597;49.628;10.850;2023-02-16T03:43:46;16.70;46.00
44863;DHT22;30597;49.628;10.850;2023-02-16T03:46:12;16.70;46.10
44863;DHT22;30597;49.628;10.850;2023-02-16T03:48:37;16.70;46.10
44863;DHT22;30597;49.628;10.850;2023-02-16T03:51:03;16.70;46.10
44863;DHT22;30597;49.628;10.850;2023-02-16T03:53:28;16.70;46.10
44863;DHT22;30597;49.628;10.850;2023-02-16T03:55:54;16.70;46.10
44863;DHT22;30597;49.628;10.850;2023-02-16T03:58:22;16.70;46.10
44863;DHT22;30597;49.628;10.850;2023-02-16T04:00:48;16.70;46.10
44863;DHT22;30597;49.628;10.850;2023-02-16T04:03:14;16.60;46.00
44863;DHT22;30597;49.628;10.850;2023-02-16T04:05:40;16.60;46.00
44863;DHT22;30597;49.628;10.850;2023-02-16T04:08:07;16.60;46.00
44863;DHT22;30597;49.628;10.850;2023-02-16T04:10:33;16.60;46.10
44863;DHT22;30597;49.628;10.850;2023-02-16T04:13:00;16.60;46.10
44863;DHT22;30597;49.628;10.850;2023-02-16T04:15:27;16.60;46.10
44863;DHT22;30597;49.628;10.850;2023-02-16T04:17:55;16.50;46.00
44863;DHT22;30597;49.628;10.850;2023-02-16T04:20:23;16.50;46.10
44863;DHT22;30597;49.628;10.850;2023-02-16T04:22:50;16.50;46.20
44863;DHT22;30597;49.628;10.850;2023-02-16T04:25:16;16.60;46.20
44863;DHT22;30597;49.628;10.850;2023-02-16T04:27:43;16.60;46.20
44863;DHT22;30597;49.628;10.850;2023-02-16T04:30:14;16.60;46.20
44863;DHT22;30597;49.628;10.850;2023-02-16T04:32:40;16.60;46.20
44863;DHT22;30597;49.628;10.850;2023-02-16T04:35:06;16.70;46.20
44863;DHT22;30597;49.628;10.850;2023-02-16T04:37:32;16.70;46.20
44863;DHT22;30597;49.628;10.850;2023-02-16T04:39:57;16.80;46.10
44863;DHT22;30597;49.628;10.850;2023-02-16T04:42:23;16.80;45.90
44863;DHT22;30597;49.628;10.850;2023-02-16T04:44:48;16.90;45.70
44863;DHT22;30597;49.628;10.850;2023-02-16T04:47:14;17.00;45.70
44863;DHT22;30597;49.628;10.850;2023-02-16T04:49:39;17.00;45.60
44863;DHT22;30597;49.628;10.850;2023-02-16T04:52:05;17.10;45.50
44863;DHT22;30597;49.628;10.850;2023-02-16T04:54:31;17.20;45.60
44863;DHT22;30597;49.628;10.850;2023-02-16T04:56:57;17.20;45.40
44863;DHT22;30597;49.628;10.850;2023-02-16T04:59:22;17.20;45.40
44863;DHT22;30597;49.628;10.850;2023-02-16T05:01:48;17.30;45.40
44863;DHT22;30597;49.628;10.850;2023-02-16T05:04:14;17.30;45.20
44863;DHT22;30597;49.628;10.850;2023-02-16T05:06:40;17.40;45.30
44863;DHT22;30597;49.628;10.850;2023-02-16T05:09:06;17.40;45.20
44863;DHT22;30597;49.628;10.850;2023-02-16T05:11:32;17.40;45.10
44863;DHT22;30597;49.628;10.850;2023-02-16T05:14:22;17.50;45.20
44863;DHT22;30597;49.628;10.850;2023-02-16T05:17:13;17.50;45.00
44863;DHT22;30597;49.628;10.850;2023-02-16T05:19:41;17.60;44.90
44863;DHT22;30597;49.628;10.850;2023-02-16T05:22:07;17.70;45.00
44863;DHT22;30597;49.628;10.850;2023-02-16T05:24:33;17.70;45.00
44863;DHT22;30597;49.628;10.850;2023-02-16T05:27:00;17.70;44.90
44863;DHT22;30597;49.628;10.850;2023-02-16T05:29:26;17.80;44.90
44863;DHT22;30597;49.628;10.850;2023-02-16T05:31:51;17.90;44.80
44863;DHT22;30597;49.628;10.850;2023-02-16T05:34:17;17.90;44.70
44863;DHT22;30597;49.628;10.850;2023-02-16T05:36:42;17.90;44.70
44863;DHT22;30597;49.628;10.850;2023-02-16T05:39:08;18.00;44.70
44863;DHT22;30597;49.628;10.850;2023-02-16T05:41:34;18.00;44.70
44863;DHT22;30597;49.628;10.850;2023-02-16T05:44:02;18.00;44.60
44863;DHT22;30597;49.628;10.850;2023-02-16T05:46:29;18.10;44.70
44863;DHT22;30597;49.628;10.850;2023-02-16T05:48:57;18.10;44.60
44863;DHT22;30597;49.628;10.850;2023-02-16T05:51:23;18.10;44.50
44863;DHT22;30597;49.628;10.850;2023-02-16T05:53:48;18.10;44.50
44863;DHT22;30597;49.628;10.850;2023-02-16T05:56:14;18.10;44.60
44863;DHT22;30597;49.628;10.850;2023-02-16T05:58:39;18.10;44.60
44863;DHT22;30597;49.628;10.850;2023-02-16T06:01:05;18.00;44.60
44863;DHT22;30597;49.628;10.850;2023-02-16T06:03:31;17.90;44.60
44863;DHT22;30597;49.628;10.850;2023-02-16T06:06:00;17.90;44.80
44863;DHT22;30597;49.628;10.850;2023-02-16T06:08:26;17.90;44.90
44863;DHT22;30597;49.628;10.850;2023-02-16T06:10:52;17.80;45.00
44863;DHT22;30597;49.628;10.850;2023-02-16T06:13:19;17.70;44.90
44863;DHT22;30597;49.628;10.850;2023-02-16T06:15:46;17.70;45.00
44863;DHT22;30597;49.628;10.850;2023-02-16T06:18:12;17.70;45.10
44863;DHT22;30597;49.628;10.850;2023-02-16T06:20:39;17.60;45.00
44863;DHT22;30597;49.628;10.850;2023-02-16T06:23:06;17.60;45.10
44863;DHT22;30597;49.628;10.850;2023-02-16T06:25:32;17.60;45.20
44863;DHT22;30597;49.628;10.850;2023-02-16T06:27:57;17.50;45.10
44863;DHT22;30597;49.628;10.850;2023-02-16T06:30:23;17.50;45.20
44863;DHT22;30597;49.628;10.850;2023-02-16T06:32:49;17.40;45.30
44863;DHT22;30597;49.628;10.850;2023-02-16T06:35:15;17.40;45.20
44863;DHT22;30597;49.628;10.850;2023-02-16T06:37:41;17.40;45.30
44863;DHT22;30597;49.628;10.850;2023-02-16T06:40:07;17.40;45.30
44863;DHT22;30597;49.628;10.850;2023-02-16T06:42:35;17.40;45.40
44863;DHT22;30597;49.628;10.850;2023-02-16T06:45:00;17.40;45.40
44863;DHT22;30597;49.628;10.850;2023-02-16T06:47:26;17.40;45.30
44863;DHT22;30597;49.628;10.850;2023-02-16T06:49:51;17.40;45.20
44863;DHT22;30597;49.628;10.850;2023-02-16T06:52:17;17.30;45.20
44863;DHT22;30597;49.628;10.850;2023-02-16T06:54:42;17.30;45.50
44863;DHT22;30597;49.628;10.850;2023-02-16T06:57:08;17.20;45.30
44863;DHT22;30597;49.628;10.850;2023-02-16T06:59:33;17.20;45.40
44863;DHT22;30597;49.628;10.850;2023-02-16T07:01:59;17.30;45.40
44863;DHT22;30597;49.628;10.850;2023-02-16T07:04:24;17.30;45.30
44863;DHT22;30597;49.628;10.850;2023-02-16T07:06:50;17.40;45.20
44863;DHT22;30597;49.628;10.850;2023-02-16T07:09:15;17.60;45.10
44863;DHT22;30597;49.628;10.850;2023-02-16T07:11:42;17.70;44.90
44863;DHT22;30597;49.628;10.850;2023-02-16T07:14:08;17.90;44.70
44863;DHT22;30597;49.628;10.850;2023-02-16T07:16:33;18.10;44.60
44863;DHT22;30597;49.628;10.850;2023-02-16T07:18:59;18.20;44.40
44863;DHT22;30597;49.628;10.850;2023-02-16T07:21:24;18.30;44.20
44863;DHT22;30597;49.628;10.850;2023-02-16T07:23:50;18.30;44.10
44863;DHT22;30597;49.628;10.850;2023-02-16T07:26:15;18.40;43.90
44863;DHT22;30597;49.628;10.850;2023-02-16T07:28:41;18.40;43.90
44863;DHT22;30597;49.628;10.850;2023-02-16T07:31:12;18.50;43.80
44863;DHT22;30597;49.628;10.850;2023-02-16T07:33:38;18.60;43.80
44863;DHT22;30597;49.628;10.850;2023-02-16T07:36:05;18.60;43.80
44863;DHT22;30597;49.628;10.850;2023-02-16T07:38:31;18.70;43.70
44863;DHT22;30597;49.628;10.850;2023-02-16T07:40:57;18.70;43.70
44863;DHT22;30597;49.628;10.850;2023-02-16T07:43:23;18.80;43.70
44863;DHT22;30597;49.628;10.850;2023-02-16T07:45:49;18.80;43.60
44863;DHT22;30597;49.628;10.850;2023-02-16T07:48:14;18.80;43.50
44863;DHT22;30597;49.628;10.850;2023-02-16T07:50:40;18.90;43.50
44863;DHT22;30597;49.628;10.850;2023-02-16T07:53:06;18.90;43.50
44863;DHT22;30597;49.628;10.850;2023-02-16T07:55:32;19.00;43.60
44863;DHT22;30597;49.628;10.850;2023-02-16T07:57:58;19.00;43.40
44863;DHT22;30597;49.628;10.850;2023-02-16T08:00:24;19.00;43.40
44863;DHT22;30597;49.628;10.850;2023-02-16T08:02:50;19.00;43.30
44863;DHT22;30597;49.628;10.850;2023-02-16T08:05:17;19.10;43.30
44863;DHT22;30597;49.628;10.850;2023-02-16T08:07:43;19.10;43.20
44863;DHT22;30597;49.628;10.850;2023-02-16T08:10:08;19.20;43.20
44863;DHT22;30597;49.628;10.850;2023-02-16T08:12:34;19.20;43.10
44863;DHT22;30597;49.628;10.850;2023-02-16T08:15:00;19.20;43.00
44863;DHT22;30597;49.628;10.850;2023-02-16T08:17:27;19.30;43.00
44863;DHT22;30597;49.628;10.850;2023-02-16T08:19:53;19.30;43.00
44863;DHT22;30597;49.628;10.850;2023-02-16T08:22:18;19.30;42.90
44863;DHT22;30597;49.628;10.850;2023-02-16T08:24:44;19.30;42.90
44863;DHT22;30597;49.628;10.850;2023-02-16T08:27:09;19.30;42.90
44863;DHT22;30597;49.628;10.850;2023-02-16T08:29:35;19.40;42.90
44863;DHT22;30597;49.628;10.850;2023-02-16T08:32:01;19.50;42.80
44863;DHT22;30597;49.628;10.850;2023-02-16T08:34:33;19.50;42.80
44863;DHT22;30597;49.628;10.850;2023-02-16T08:36:58;19.50;42.90
44863;DHT22;30597;49.628;10.850;2023-02-16T08:39:27;19.50;42.80
44863;DHT22;30597;49.628;10.850;2023-02-16T08:41:55;19.50;42.70
44863;DHT22;30597;49.628;10.850;2023-02-16T08:44:22;19.50;42.70
44863;DHT22;30597;49.628;10.850;2023-02-16T08:46:49;19.60;42.70
44863;DHT22;30597;49.628;10.850;2023-02-16T08:49:17;19.60;42.70
44863;DHT22;30597;49.628;10.850;2023-02-16T08:51:49;19.60;42.70
44863;DHT22;30597;49.628;10.850;2023-02-16T08:54:28;19.60;42.60
44863;DHT22;30597;49.628;10.850;2023-02-16T08:56:55;19.70;42.70
44863;DHT22;30597;49.628;10.850;2023-02-16T08:59:23;19.70;42.70
44863;DHT22;30597;49.628;10.850;2023-02-16T09:01:49;19.70;42.60
44863;DHT22;30597;49.628;10.850;2023-02-16T09:04:16;19.70;42.60
44863;DHT22;30597;49.628;10.850;2023-02-16T09:06:44;19.80;42.60
44863;DHT22;30597;49.628;10.850;2023-02-16T09:09:11;19.70;42.50
44863;DHT22;30597;49.628;10.850;2023-02-16T09:11:37;19.80;42.50
44863;DHT22;30597;49.628;10.850;2023-02-16T09:14:03;19.80;42.40
44863;DHT22;30597;49.628;10.850;2023-02-16T09:16:29;19.80;42.40
44863;DHT22;30597;49.628;10.850;2023-02-16T09:18:59;19.80;42.30
44863;DHT22;30597;49.628;10.850;2023-02-16T09:21:29;19.80;42.30
44863;DHT22;30597;49.628;10.850;2023-02-16T09:24:00;19.80;42.30
44863;DHT22;30597;49.628;10.850;2023-02-16T09:26:26;19.90;42.40
44863;DHT22;30597;49.628;10.850;2023-02-16T09:28:54;19.80;42.30
44863;DHT22;30597;49.628;10.850;2023-02-16T09:31:22;19.90;42.30
44863;DHT22;30597;49.628;10.850;2023-02-16T09:33:58;19.90;42.20
44863;DHT22;30597;49.628;10.850;2023-02-16T09:36:24;19.90;42.20
44863;DHT22;30597;49.628;10.850;2023-02-16T09:38:52;19.90;42.20
44863;DHT22;30597;49.628;10.850;2023-02-16T09:41:31;20.00;42.20
44863;DHT22;30597;49.628;10.850;2023-02-16T09:46:45;20.00;42.20
44863;DHT22;30597;49.628;10.850;2023-02-16T09:49:37;20.00;42.30
44863;DHT22;30597;49.628;10.850;2023-02-16T09:54:48;20.00;42.20
44863;DHT22;30597;49.628;10.850;2023-02-16T10:03:37;20.00;42.20
44863;DHT22;30597;49.628;10.850;2023-02-16T10:06:26;20.00;42.20
44863;DHT22;30597;49.628;10.850;2023-02-16T10:08:57;20.00;42.10
44863;DHT22;30597;49.628;10.850;2023-02-16T10:11:35;20.10;42.20
44863;DHT22;30597;49.628;10.850;2023-02-16T10:14:24;20.10;42.10
44863;DHT22;30597;49.628;10.850;2023-02-16T10:20:00;20.10;42.10
44863;DHT22;30597;49.628;10.850;2023-02-16T10:22:40;20.10;42.00
44863;DHT22;30597;49.628;10.850;2023-02-16T10:25:59;20.20;42.10
44863;DHT22;30597;49.628;10.850;2023-02-16T10:31:38;20.20;42.00
44863;DHT22;30597;49.628;10.850;2023-02-16T10:34:47;20.20;42.10
44863;DHT22;30597;49.628;10.850;2023-02-16T10:43:12;20.20;42.00
44863;DHT22;30597;49.628;10.850;2023-02-16T10:45:51;20.20;42.00
44863;DHT22;30597;49.628;10.850;2023-02-16T10:48:17;20.30;42.00
44863;DHT22;30597;49.628;10.850;2023-02-16T10:55:48;20.30;41.80
44863;DHT22;30597;49.628;10.850;2023-02-16T10:58:25;20.30;41.80
44863;DHT22;30597;49.628;10.850;2023-02-16T11:01:06;20.30;41.70
44863;DHT22;30597;49.628;10.850;2023-02-16T11:03:42;20.30;41.70
44863;DHT22;30597;49.628;10.850;2023-02-16T11:06:17;20.30;41.80
44863;DHT22;30597;49.628;10.850;2023-02-16T11:08:54;20.30;41.70
44863;DHT22;30597;49.628;10.850;2023-02-16T11:11:24;20.30;41.80
44863;DHT22;30597;49.628;10.850;2023-02-16T11:14:03;20.30;41.70
44863;DHT22;30597;49.628;10.850;2023-02-16T11:16:30;20.30;41.70
44863;DHT22;30597;49.628;10.850;2023-02-16T11:21:44;20.30;41.70
44863;DHT22;30597;49.628;10.850;2023-02-16T11:24:18;20.30;41.60
44863;DHT22;30597;49.628;10.850;2023-02-16T11:27:19;20.30;41.70
44863;DHT22;30597;49.628;10.850;2023-02-16T11:29:44;20.30;41.70
44863;DHT22;30597;49.628;10.850;2023-02-16T11:32:11;20.30;41.70
44863;DHT22;30597;49.628;10.850;2023-02-16T11:34:46;20.30;41.70
44863;DHT22;30597;49.628;10.850;2023-02-16T11:37:28;20.30;41.70
44863;DHT22;30597;49.628;10.850;2023-02-16T11:40:00;20.30;41.80
44863;DHT22;30597;49.628;10.850;2023-02-16T11:42:37;20.20;41.60
44863;DHT22;30597;49.628;10.850;2023-02-16T11:45:25;20.20;41.60
44863;DHT22;30597;49.628;10.850;2023-02-16T11:48:04;20.30;41.80
44863;DHT22;30597;49.628;10.850;2023-02-16T11:50:34;20.30;41.80
44863;DHT22;30597;49.628;10.850;2023-02-16T11:55:35;20.30;41.80
44863;DHT22;30597;49.628;10.850;2023-02-16T11:58:20;20.20;41.70
44863;DHT22;30597;49.628;10.850;2023-02-16T12:01:12;20.20;41.70
44863;DHT22;30597;49.628;10.850;2023-02-16T12:04:09;20.30;41.70
44863;DHT22;30597;49.628;10.850;2023-02-16T12:07:19;20.30;41.70
44863;DHT22;30597;49.628;10.850;2023-02-16T12:10:09;20.40;41.80
44863;DHT22;30597;49.628;10.850;2023-02-16T12:18:20;20.40;41.50
44863;DHT22;30597;49.628;10.850;2023-02-16T12:21:01;20.50;41.60
44863;DHT22;30597;49.628;10.850;2023-02-16T12:23:40;20.50;41.60
44863;DHT22;30597;49.628;10.850;2023-02-16T12:29:08;20.50;41.50
44863;DHT22;30597;49.628;10.850;2023-02-16T12:34:49;20.60;41.50
44863;DHT22;30597;49.628;10.850;2023-02-16T12:40:59;20.60;41.50
44863;DHT22;30597;49.628;10.850;2023-02-16T12:46:14;20.60;41.50
44863;DHT22;30597;49.628;10.850;2023-02-16T12:48:54;20.50;41.50
44863;DHT22;30597;49.628;10.850;2023-02-16T12:51:36;20.50;41.50
44863;DHT22;30597;49.628;10.850;2023-02-16T12:54:26;20.50;41.50
44863;DHT22;30597;49.628;10.850;2023-02-16T12:57:07;20.60;41.60
44863;DHT22;30597;49.628;10.850;2023-02-16T13:02:09;20.50;41.70
44863;DHT22;30597;49.628;10.850;2023-02-16T13:04:41;20.60;41.60
44863;DHT22;30597;49.628;10.850;2023-02-16T13:07:30;20.60;41.60
44863;DHT22;30597;49.628;10.850;2023-02-16T13:10:01;20.60;41.60
44863;DHT22;30597;49.628;10.850;2023-02-16T13:12:36;20.60;41.60
44863;DHT22;30597;49.628;10.850;2023-02-16T13:17:46;20.60;41.60
44863;DHT22;30597;49.628;10.850;2023-02-16T13:20:18;20.60;41.60
44863;DHT22;30597;49.628;10.850;2023-02-16T13:22:57;20.60;41.60
44863;DHT22;30597;49.628;10.850;2023-02-16T13:25:44;20.60;41.60
44863;DHT22;30597;49.628;10.850;2023-02-16T13:37:17;20.60;41.60
44863;DHT22;30597;49.628;10.850;2023-02-16T13:40:19;20.60;41.60
44863;DHT22;30597;49.628;10.850;2023-02-16T13:45:43;20.60;41.60
44863;DHT22;30597;49.628;10.850;2023-02-16T13:48:28;20.60;41.70
44863;DHT22;30597;49.628;10.850;2023-02-16T13:51:05;20.60;41.60
44863;DHT22;30597;49.628;10.850;2023-02-16T13:53:36;20.60;41.70
44863;DHT22;30597;49.628;10.850;2023-02-16T13:58:56;20.60;41.70
44863;DHT22;30597;49.628;10.850;2023-02-16T14:01:34;20.60;41.70
44863;DHT22;30597;49.628;10.850;2023-02-16T14:04:04;20.60;41.70
44863;DHT22;30597;49.628;10.850;2023-02-16T14:06:35;20.60;41.70
44863;DHT22;30597;49.628;10.850;2023-02-16T14:20:02;20.70;41.70
44863;DHT22;30597;49.628;10.850;2023-02-16T14:22:48;20.70;41.70
44863;DHT22;30597;49.628;10.850;2023-02-16T14:32:58;20.60;41.70
44863;DHT22;30597;49.628;10.850;2023-02-16T14:35:35;20.60;41.70
44863;DHT22;30597;49.628;10.850;2023-02-16T14:38:26;20.70;41.80
44863;DHT22;30597;49.628;10.850;2023-02-16T14:40:55;20.70;41.80
44863;DHT22;30597;49.628;10.850;2023-02-16T14:46:19;20.70;41.80
44863;DHT22;30597;49.628;10.850;2023-02-16T14:49:20;20.70;41.80
44863;DHT22;30597;49.628;10.850;2023-02-16T14:52:17;20.70;41.80
44863;DHT22;30597;49.628;10.850;2023-02-16T15:00:35;20.70;41.80
44863;DHT22;30597;49.628;10.850;2023-02-16T15:03:21;20.70;41.80
44863;DHT22;30597;49.628;10.850;2023-02-16T15:05:56;20.60;41.70
44863;DHT22;30597;49.628;10.850;2023-02-16T15:08:25;20.60;41.80
44863;DHT22;30597;49.628;10.850;2023-02-16T15:10:59;20.60;41.90
44863;DHT22;30597;49.628;10.850;2023-02-16T15:13:31;20.60;42.00
44863;DHT22;30597;49.628;10.850;2023-02-16T15:15:59;20.50;42.00
44863;DHT22;30597;49.628;10.850;2023-02-16T15:18:31;20.50;42.00
44863;DHT22;30597;49.628;10.850;2023-02-16T15:20:57;20.40;42.00
44863;DHT22;30597;49.628;10.850;2023-02-16T15:23:29;20.40;42.10
44863;DHT22;30597;49.628;10.850;2023-02-16T15:26:03;20.30;42.10
44863;DHT22;30597;49.628;10.850;2023-02-16T15:28:34;20.30;42.10
44863;DHT22;30597;49.628;10.850;2023-02-16T15:31:03;20.30;42.20
44863;DHT22;30597;49.628;10.850;2023-02-16T15:33:34;20.30;42.20
44863;DHT22;30597;49.628;10.850;2023-02-16T15:36:03;20.30;42.20
44863;DHT22;30597;49.628;10.850;2023-02-16T15:38:34;20.30;42.20
44863;DHT22;30597;49.628;10.850;2023-02-16T15:41:04;20.40;42.10
44863;DHT22;30597;49.628;10.850;2023-02-16T15:43:33;20.40;42.00
44863;DHT22;30597;49.628;10.850;2023-02-16T15:46:01;20.50;42.00
44863;DHT22;30597;49.628;10.850;2023-02-16T15:48:31;20.50;42.00
44863;DHT22;30597;49.628;10.850;2023-02-16T15:51:15;20.60;42.00
44863;DHT22;30597;49.628;10.850;2023-02-16T15:53:53;20.60;42.00
44863;DHT22;30597;49.628;10.850;2023-02-16T15:59:01;20.60;41.90
44863;DHT22;30597;49.628;10.850;2023-02-16T16:01:36;20.60;41.90
44863;DHT22;30597;49.628;10.850;2023-02-16T16:04:20;20.60;41.80
44863;DHT22;30597;49.628;10.850;2023-02-16T16:06:47;20.60;41.80
44863;DHT22;30597;49.628;10.850;2023-02-16T16:11:48;20.60;41.90
44863;DHT22;30597;49.628;10.850;2023-02-16T16:14:15;20.60;41.90
44863;DHT22;30597;49.628;10.850;2023-02-16T16:16:42;20.70;42.60
44863;DHT22;30597;49.628;10.850;2023-02-16T16:19:21;20.70;42.10
44863;DHT22;30597;49.628;10.850;2023-02-16T16:21:52;20.60;42.00
44863;DHT22;30597;49.628;10.850;2023-02-16T16:24:34;20.60;42.00
44863;DHT22;30597;49.628;10.850;2023-02-16T16:27:08;20.70;42.10
44863;DHT22;30597;49.628;10.850;2023-02-16T16:29:43;20.60;42.00
44863;DHT22;30597;49.628;10.850;2023-02-16T16:32:18;20.60;42.10
44863;DHT22;30597;49.628;10.850;2023-02-16T16:34:44;20.50;42.00
44863;DHT22;30597;49.628;10.850;2023-02-16T16:37:28;20.50;42.10
44863;DHT22;30597;49.628;10.850;2023-02-16T16:40:07;20.50;42.20
44863;DHT22;30597;49.628;10.850;2023-02-16T16:48:27;20.30;42.40
44863;DHT22;30597;49.628;10.850;2023-02-16T16:54:00;20.20;42.50
44863;DHT22;30597;49.628;10.850;2023-02-16T16:56:27;20.10;42.60
44863;DHT22;30597;49.628;10.850;2023-02-16T16:58:56;20.10;42.70
44863;DHT22;30597;49.628;10.850;2023-02-16T17:01:22;20.10;42.80
44863;DHT22;30597;49.628;10.850;2023-02-16T17:03:48;20.10;42.80
44863;DHT22;30597;49.628;10.850;2023-02-16T17:06:14;20.20;43.40
44863;DHT22;30597;49.628;10.850;2023-02-16T17:08:42;20.20;42.70
44863;DHT22;30597;49.628;10.850;2023-02-16T17:11:28;20.30;42.70
44863;DHT22;30597;49.628;10.850;2023-02-16T17:13:56;20.30;42.60
44863;DHT22;30597;49.628;10.850;2023-02-16T17:16:28;20.30;42.60
44863;DHT22;30597;49.628;10.850;2023-02-16T17:18:55;20.30;42.60
44863;DHT22;30597;49.628;10.850;2023-02-16T17:21:20;20.40;42.50
44863;DHT22;30597;49.628;10.850;2023-02-16T17:23:46;20.50;42.50
44863;DHT22;30597;49.628;10.850;2023-02-16T17:26:12;20.50;42.40
44863;DHT22;30597;49.628;10.850;2023-02-16T17:28:37;20.50;42.40
44863;DHT22;30597;49.628;10.850;2023-02-16T17:31:07;20.60;42.40
44863;DHT22;30597;49.628;10.850;2023-02-16T17:33:33;20.60;42.40
44863;DHT22;30597;49.628;10.850;2023-02-16T17:36:01;20.60;42.30
44863;DHT22;30597;49.628;10.850;2023-02-16T17:38:27;20.70;42.30
44863;DHT22;30597;49.628;10.850;2023-02-16T17:40:54;20.60;42.30
44863;DHT22;30597;49.628;10.850;2023-02-16T17:43:21;20.60;42.30
44863;DHT22;30597;49.628;10.850;2023-02-16T17:45:47;20.70;42.30
44863;DHT22;30597;49.628;10.850;2023-02-16T17:48:17;20.70;42.30